Bookmark and Share
Track history (hours):
 

Chesapeake

More information available from US FCC via Universal Licensing System and Coast Guard Vessel Documentation Center.

Last reported at 2014-Apr-24 04:25 UTC. Time now 2014-Apr-24 11:22 UTC.
Position N 40°39' W 074°09'.

Length 34 m; draft 16 m.

Type: Tug. MMSI: 367123040.

NotesDate/timePositionNaut miles runAvg speedWind from/ knotsBaromVisibWave heightAir tempDewpointWater temp
2014-Apr-24 04:25N 40°39' W 074°09'8 8.7
2014-Apr-24 03:32N 40°44' W 074°01'  
2014-Apr-21 14:23N 40°57' W 073°54'6 6.9
2014-Apr-21 13:33N 40°52' W 073°57'6 6.0
2014-Apr-21 12:33N 40°46' W 074°00'6 6.3
2014-Apr-21 11:33N 40°40' W 074°03'6 6.2
2014-Apr-21 10:34N 40°34' W 074°01'3 3.2
2014-Apr-21 09:29N 40°31' W 073°59'5 4.9
2014-Apr-21 08:32N 40°29' W 073°54'6 6.1
2014-Apr-21 07:31N 40°22' W 073°54'7 7.5
2014-Apr-21 06:33N 40°15' W 073°54'8 7.6
2014-Apr-21 05:33N 40°08' W 073°55'8 7.6
2014-Apr-21 04:33N 40°00' W 073°56'8 7.7
2014-Apr-21 03:30N 39°52' W 073°58'7 7.8
2014-Apr-21 02:33N 39°45' W 073°59'7 7.3
2014-Apr-21 01:32N 39°38' W 074°04'7 7.1
2014-Apr-21 00:33N 39°32' W 074°08'  
2014-Apr-18 06:34N 39°12' W 076°31'3 2.8
2014-Apr-18 05:33N 39°13' W 076°35'0 0.1
2014-Apr-18 04:34N 39°13' W 076°35'0 0.0
2014-Apr-18 03:33N 39°13' W 076°35'0 0.3
2014-Apr-18 02:33N 39°13' W 076°35'3 2.6
2014-Apr-18 01:33N 39°15' W 076°33'0 0.0
2014-Apr-18 00:33N 39°15' W 076°33'2 2.1
2014-Apr-17 23:33N 39°17' W 076°36'0 0.0
2014-Apr-17 22:33N 39°17' W 076°36'0 0.0
2014-Apr-17 21:33N 39°17' W 076°36'2 2.5
2014-Apr-17 20:33N 39°15' W 076°34'0 0.0
2014-Apr-17 19:33N 39°15' W 076°34'0 0.0
2014-Apr-17 18:33N 39°15' W 076°34'0 0.0
2014-Apr-17 17:33N 39°15' W 076°34'0 0.0
2014-Apr-17 16:33N 39°15' W 076°34'0 0.0
2014-Apr-17 15:33N 39°15' W 076°34'0 0.0
2014-Apr-17 14:33N 39°15' W 076°34'1 1.3
2014-Apr-17 13:33N 39°14' W 076°33'1 1.5
2014-Apr-17 12:34N 39°13' W 076°35'7 6.7
2014-Apr-17 11:33N 39°11' W 076°26'  

Dump ship's entire track history

sailing weather and tide predictions

Chesapeake — WDD3041 — position and weather